Portada
METAR-TAF:

METAR-TAF

Aeropuertos :

Jartum, Sudán

Aeropuerto Internacional de Jartum

latitud: 15-36N, longitud: 032-33E, altitud: 382 m

Observación

El informe se hizo hace 21 minutos, a las 22:00 UTC
Viento 9 kt del norte
Temperatura 23°C
Humedad 27%
Presión 1014 hPa
Visibilidad 10 km o más
sin nubes por debajo de 1500 m y sin presencia de cumulonimbus.

METAR: HSSS 212200Z 35009KT CAVOK 23/03 Q1014 NOSIG

Hora: 01:21 (22:21 UTC)

Pronóstico

El informe se hizo hace 5 horas y 21 minutos, a las 17:00 UTC
Pronóstico válido del 21 a las 18 UTC al 22 a las 24 UTC
Viento 6 kt del norte con ráfagas de 16 kt
Visibilidad 10 km o más
sin nubes por debajo de 1500 m y sin presencia de cumulonimbus.
Temporalmente
del 22 a las 03 UTC al 22 a las 09 UTC
Visibilidad: 6000 m

TAF: HSSS 211700Z 2118/2224 36006G16KT CAVOK TEMPO 2203/2209 6000

Observaciones y pronósticos meteorológicos de más de 4000 aeropuertos (mensajes METAR y TAF).

Los puntos amarillos y rojos representan las estaciones disponibles.

Ponga el ratón en el punto deseado para ver el nombre de la estación.

Haga clic para ver las observaciones y los pronósticos meteorológicos.

Para cambiar el mapa : haga clic en los botones verdes con una cruz de color negro para hacer un zoom, en el botón verde con un guión para alejar o en las flechas verdes para mapas adyacentes.


METAR-TAF: